createdAt,value
2017-10-10T00:01:46.065Z,12.40
2017-10-10T00:04:13.534Z,12.40
2017-10-10T00:06:41.786Z,12.40
2017-10-10T00:09:09.248Z,12.40
2017-10-10T00:11:37.227Z,12.40
2017-10-10T00:14:06.334Z,12.30
2017-10-10T00:16:33.826Z,12.30
2017-10-10T00:19:01.689Z,12.30
2017-10-10T00:21:29.243Z,12.30
2017-10-10T00:23:56.854Z,12.30
2017-10-10T00:26:24.361Z,12.30
2017-10-10T00:28:52.256Z,12.30
2017-10-10T00:31:20.566Z,12.40
2017-10-10T00:33:48.046Z,12.40
2017-10-10T00:36:15.771Z,12.30
2017-10-10T00:38:43.245Z,12.30
2017-10-10T00:41:11.646Z,12.30
2017-10-10T00:43:39.183Z,12.30
2017-10-10T00:46:07.745Z,12.30
2017-10-10T00:48:35.260Z,12.30
2017-10-10T00:51:02.738Z,12.30
2017-10-10T00:53:30.218Z,12.30
2017-10-10T00:55:58.527Z,12.30
2017-10-10T00:58:27.240Z,12.30
2017-10-10T01:00:54.970Z,12.30
2017-10-10T01:03:33.149Z,12.30
2017-10-10T01:06:01.043Z,12.30
2017-10-10T01:08:29.326Z,12.30
2017-10-10T01:10:57.612Z,12.40
2017-10-10T01:13:25.881Z,12.40
2017-10-10T01:15:54.251Z,12.40
2017-10-10T01:18:21.795Z,12.40
2017-10-10T01:20:49.282Z,12.40
2017-10-10T01:23:17.314Z,12.40
2017-10-10T01:25:44.826Z,12.40
2017-10-10T01:28:12.293Z,12.40
2017-10-10T01:30:39.778Z,12.50
2017-10-10T01:33:07.258Z,12.50
2017-10-10T01:35:35.545Z,12.60
2017-10-10T01:38:03.804Z,12.60
2017-10-10T01:40:32.123Z,12.70
2017-10-10T01:42:59.909Z,12.70
2017-10-10T01:45:27.390Z,12.70
2017-10-10T01:47:54.902Z,12.90
2017-10-10T01:50:22.757Z,12.80
2017-10-10T01:52:51.015Z,12.80
2017-10-10T01:55:19.243Z,12.70
2017-10-10T01:57:46.789Z,12.70
2017-10-10T02:00:14.308Z,12.70
2017-10-10T02:02:42.533Z,12.70
2017-10-10T02:05:10.051Z,12.60
2017-10-10T02:07:39.241Z,12.60
2017-10-10T02:10:07.610Z,12.60
2017-10-10T02:12:35.116Z,12.60
2017-10-10T02:15:02.743Z,12.50
2017-10-10T02:17:31.022Z,12.50
2017-10-10T02:19:59.304Z,12.30
2017-10-10T02:22:27.065Z,12.30
2017-10-10T02:24:55.339Z,12.30
2017-10-10T02:27:23.594Z,12.30
2017-10-10T02:29:51.081Z,12.30
2017-10-10T02:32:19.131Z,12.30
2017-10-10T02:34:47.567Z,12.30
2017-10-10T02:37:15.114Z,12.30
2017-10-10T02:39:42.977Z,12.30
2017-10-10T02:42:10.483Z,12.30
2017-10-10T02:44:37.971Z,12.30
2017-10-10T02:47:06.348Z,12.40
2017-10-10T02:49:34.642Z,12.50
2017-10-10T02:52:02.122Z,12.40
2017-10-10T02:54:29.596Z,12.40
2017-10-10T02:56:57.068Z,12.40
2017-10-10T02:59:24.694Z,12.40
2017-10-10T03:01:52.167Z,12.40
2017-10-10T03:04:19.982Z,12.30
2017-10-10T03:06:47.472Z,12.40
2017-10-10T03:09:15.006Z,12.30
2017-10-10T03:11:42.523Z,12.30
2017-10-10T03:14:10.934Z,12.30
2017-10-10T03:16:38.595Z,12.30
2017-10-10T03:19:06.124Z,12.30
2017-10-10T03:21:33.627Z,12.30
2017-10-10T03:24:01.148Z,12.30
2017-10-10T03:26:29.529Z,12.30
2017-10-10T03:28:58.037Z,12.30
2017-10-10T03:31:25.511Z,12.30
2017-10-10T03:33:52.974Z,12.30
2017-10-10T03:36:21.576Z,12.30
2017-10-10T03:38:49.055Z,12.30
2017-10-10T03:41:16.545Z,12.30
2017-10-10T03:43:46.414Z,12.20
2017-10-10T03:46:13.908Z,12.20
2017-10-10T03:48:42.144Z,12.20
2017-10-10T03:51:09.659Z,12.10
2017-10-10T03:53:37.169Z,12.20
2017-10-10T03:59:09.569Z,12.20
2017-10-10T04:01:37.874Z,12.30
2017-10-10T04:04:05.357Z,12.30
2017-10-10T04:06:33.734Z,12.30
2017-10-10T04:09:01.262Z,12.40
2017-10-10T04:11:30.045Z,12.30
2017-10-10T04:13:58.310Z,12.40
2017-10-10T04:16:27.249Z,12.50
2017-10-10T04:18:54.759Z,12.40
2017-10-10T04:21:22.854Z,12.40
2017-10-10T04:23:50.685Z,12.40
2017-10-10T04:26:18.178Z,12.50
2017-10-10T04:28:45.711Z,12.50
2017-10-10T04:31:14.012Z,12.50
2017-10-10T04:33:41.597Z,12.50
2017-10-10T04:36:09.277Z,12.60
2017-10-10T04:38:36.757Z,12.60
2017-10-10T04:41:04.265Z,12.60
2017-10-10T04:43:32.573Z,12.70
2017-10-10T04:46:00.121Z,12.60
2017-10-10T04:48:27.810Z,12.60
2017-10-10T04:50:57.026Z,12.60
2017-10-10T04:53:24.502Z,12.70
2017-10-10T04:55:52.009Z,12.70
2017-10-10T04:58:19.527Z,12.70
2017-10-10T05:00:47.040Z,12.70
2017-10-10T05:03:14.580Z,12.80
2017-10-10T05:05:42.057Z,12.80
2017-10-10T05:08:10.555Z,12.80
2017-10-10T05:10:38.785Z,12.70
2017-10-10T05:13:06.765Z,12.70
2017-10-10T05:15:35.030Z,12.70
2017-10-10T05:18:02.520Z,12.70
2017-10-10T05:20:30.261Z,12.70
2017-10-10T05:22:57.777Z,12.70
2017-10-10T05:25:25.286Z,12.70
2017-10-10T05:27:52.864Z,12.70
2017-10-10T05:30:20.472Z,12.80
2017-10-10T05:32:47.958Z,12.70
2017-10-10T05:35:15.499Z,12.70
2017-10-10T05:37:42.976Z,12.70
2017-10-10T05:40:10.522Z,12.70
2017-10-10T05:42:38.065Z,12.80
2017-10-10T05:45:05.731Z,12.80
2017-10-10T05:47:33.188Z,12.80
2017-10-10T05:50:00.920Z,12.80
2017-10-10T05:52:28.422Z,12.80
2017-10-10T05:54:55.931Z,12.80
2017-10-10T05:57:24.244Z,12.90
2017-10-10T05:59:51.811Z,12.90
2017-10-10T06:02:19.301Z,12.90
2017-10-10T06:04:46.976Z,12.90
2017-10-10T06:07:15.391Z,12.80
2017-10-10T06:09:42.920Z,12.80
2017-10-10T06:12:11.996Z,12.80
2017-10-10T06:14:39.462Z,12.80
2017-10-10T06:17:07.923Z,12.80
2017-10-10T06:19:35.485Z,12.80
2017-10-10T06:22:03.048Z,12.80
2017-10-10T06:24:30.560Z,12.80
2017-10-10T06:26:58.079Z,12.80
2017-10-10T06:29:26.678Z,12.80
2017-10-10T06:31:54.969Z,12.80
2017-10-10T06:34:22.494Z,12.70
2017-10-10T06:36:50.758Z,12.80
2017-10-10T06:39:18.266Z,12.80
2017-10-10T06:41:45.957Z,12.80
2017-10-10T06:44:13.705Z,12.90
2017-10-10T06:46:41.255Z,12.90
2017-10-10T06:49:09.369Z,13.00
2017-10-10T06:51:36.868Z,13.00
2017-10-10T06:54:05.269Z,13.10
2017-10-10T07:01:08.443Z,13.30
2017-10-10T07:03:35.934Z,13.40
2017-10-10T07:06:03.465Z,13.40
2017-10-10T07:08:32.723Z,13.40
2017-10-10T07:11:00.185Z,13.40
2017-10-10T07:13:27.698Z,13.40
2017-10-10T07:15:55.289Z,13.40
2017-10-10T07:18:22.860Z,13.40
2017-10-10T07:20:51.203Z,13.40
2017-10-10T07:23:18.719Z,13.50
2017-10-10T07:25:46.212Z,13.50
2017-10-10T07:28:13.702Z,13.50
2017-10-10T07:30:41.400Z,13.60
2017-10-10T07:33:08.876Z,13.60
2017-10-10T07:35:37.129Z,13.60
2017-10-10T07:38:04.620Z,13.60
2017-10-10T07:40:32.114Z,13.70
2017-10-10T07:42:59.646Z,13.80
2017-10-10T07:45:27.170Z,13.80
2017-10-10T07:47:55.507Z,13.90
2017-10-10T07:50:22.982Z,13.90
2017-10-10T07:52:50.729Z,14.00
2017-10-10T07:55:18.205Z,14.00
2017-10-10T07:57:45.933Z,14.00
2017-10-10T08:00:13.475Z,13.90
2017-10-10T08:02:41.701Z,14.00
2017-10-10T08:05:09.640Z,14.00
2017-10-10T08:07:37.162Z,14.10
2017-10-10T08:10:05.556Z,14.30
2017-10-10T08:12:33.085Z,14.30
2017-10-10T08:15:00.613Z,14.30
2017-10-10T08:17:28.183Z,14.40
2017-10-10T08:19:55.808Z,14.50
2017-10-10T08:22:23.265Z,14.60
2017-10-10T08:24:50.756Z,14.60
2017-10-10T08:27:18.288Z,14.60
2017-10-10T08:29:46.222Z,14.50
2017-10-10T08:32:14.471Z,14.40
2017-10-10T08:34:41.936Z,14.40
2017-10-10T08:37:10.270Z,14.30
2017-10-10T08:39:37.797Z,14.30
2017-10-10T08:42:06.227Z,14.30
2017-10-10T08:44:33.756Z,14.30
2017-10-10T08:47:01.244Z,14.30
2017-10-10T08:49:28.750Z,14.40
2017-10-10T08:51:57.025Z,14.60
2017-10-10T08:54:25.327Z,14.70
2017-10-10T08:56:52.832Z,14.70
2017-10-10T08:59:20.314Z,14.90
2017-10-10T09:01:48.571Z,15.50
2017-10-10T09:04:16.836Z,15.60
2017-10-10T09:06:44.622Z,15.60
2017-10-10T09:09:12.912Z,15.90
2017-10-10T09:11:41.976Z,15.90
2017-10-10T09:14:09.488Z,15.90
2017-10-10T09:16:37.023Z,16.00
2017-10-10T09:19:04.548Z,15.90
2017-10-10T09:21:32.020Z,15.80
2017-10-10T09:24:00.350Z,16.20
2017-10-10T09:26:27.977Z,16.20
2017-10-10T09:28:56.015Z,16.00
2017-10-10T09:31:23.576Z,15.90
2017-10-10T09:33:51.387Z,15.70
2017-10-10T09:36:18.915Z,15.50
2017-10-10T09:38:47.225Z,15.30
2017-10-10T09:41:15.402Z,15.30
2017-10-10T09:43:42.883Z,15.30
2017-10-10T09:46:10.461Z,15.30
2017-10-10T09:48:37.941Z,15.20
2017-10-10T09:51:06.595Z,15.00
2017-10-10T09:53:34.177Z,15.00
2017-10-10T09:56:01.864Z,15.00
2017-10-10T09:58:29.320Z,15.00
2017-10-10T10:00:56.800Z,15.00
2017-10-10T10:03:24.376Z,15.00
2017-10-10T10:05:51.875Z,15.00
2017-10-10T10:08:20.167Z,15.20
2017-10-10T10:10:48.431Z,15.20
2017-10-10T10:13:16.720Z,15.20
2017-10-10T10:15:45.004Z,15.20
2017-10-10T10:18:12.534Z,15.20
2017-10-10T10:20:41.059Z,15.10
2017-10-10T10:23:08.633Z,15.10
2017-10-10T10:25:36.098Z,15.30
2017-10-10T10:28:03.702Z,15.40
2017-10-10T10:30:32.774Z,15.60
2017-10-10T10:33:00.388Z,15.50
2017-10-10T10:35:27.856Z,15.70
2017-10-10T10:37:55.337Z,15.80
2017-10-10T10:40:22.897Z,15.70
2017-10-10T10:42:50.373Z,15.80
2017-10-10T10:45:18.636Z,16.30
2017-10-10T10:47:46.177Z,16.30
2017-10-10T10:50:15.216Z,16.40
2017-10-10T10:52:43.663Z,16.70
2017-10-10T10:55:11.155Z,16.60
2017-10-10T10:57:39.390Z,16.80
2017-10-10T11:00:06.957Z,16.80
2017-10-10T11:02:34.558Z,16.70
2017-10-10T11:05:02.097Z,16.60
2017-10-10T11:07:29.625Z,16.50
2017-10-10T11:09:57.136Z,16.60
2017-10-10T11:12:25.387Z,16.70
2017-10-10T11:14:52.873Z,16.70
2017-10-10T11:17:20.359Z,16.80
2017-10-10T11:19:47.866Z,16.90
2017-10-10T11:22:16.185Z,17.10
2017-10-10T11:24:43.693Z,17.10
2017-10-10T11:27:11.975Z,17.10
2017-10-10T11:29:39.843Z,17.10
2017-10-10T11:32:07.328Z,17.20
2017-10-10T11:34:34.816Z,17.00
2017-10-10T11:37:02.306Z,16.90
2017-10-10T11:39:29.776Z,16.80
2017-10-10T11:41:58.395Z,16.60
2017-10-10T11:44:26.160Z,16.60
2017-10-10T11:46:53.630Z,16.60
2017-10-10T11:49:21.143Z,16.60
2017-10-10T11:51:49.407Z,16.80
2017-10-10T11:54:17.907Z,17.00
2017-10-10T11:56:46.485Z,17.00
2017-10-10T11:59:14.726Z,17.10
2017-10-10T12:01:42.215Z,17.00
2017-10-10T12:04:10.479Z,17.10
2017-10-10T12:06:37.978Z,17.10
2017-10-10T12:09:05.525Z,17.20
2017-10-10T12:11:33.221Z,17.30
2017-10-10T12:14:00.722Z,17.40
2017-10-10T12:16:28.991Z,17.40
2017-10-10T12:18:56.519Z,17.40
2017-10-10T12:21:24.481Z,17.50
2017-10-10T12:23:52.044Z,17.20
2017-10-10T12:26:20.572Z,17.10
2017-10-10T12:28:48.858Z,17.10
2017-10-10T12:31:17.161Z,17.40
2017-10-10T12:33:44.743Z,17.40
2017-10-10T12:36:12.207Z,17.40
2017-10-10T12:38:39.816Z,17.50
2017-10-10T12:41:08.095Z,17.40
2017-10-10T12:43:35.631Z,17.40
2017-10-10T12:46:03.945Z,17.40
2017-10-10T12:48:32.303Z,17.40
2017-10-10T12:51:00.626Z,17.40
2017-10-10T12:53:28.141Z,17.40
2017-10-10T12:55:56.417Z,17.30
2017-10-10T12:58:23.910Z,17.20
2017-10-10T13:00:51.442Z,17.30
2017-10-10T13:03:18.938Z,17.50
2017-10-10T13:05:46.422Z,17.50
2017-10-10T13:08:14.652Z,17.60
2017-10-10T13:10:42.460Z,17.60
2017-10-10T13:13:09.979Z,17.60
2017-10-10T13:15:37.464Z,17.80
2017-10-10T13:18:05.132Z,17.90
2017-10-10T13:20:32.618Z,18.00
2017-10-10T13:23:00.961Z,17.50
2017-10-10T13:25:29.116Z,17.50
2017-10-10T13:27:56.626Z,17.40
2017-10-10T13:30:24.884Z,17.10
2017-10-10T13:32:53.167Z,16.90
2017-10-10T13:35:21.468Z,16.80
2017-10-10T13:37:49.013Z,16.80
2017-10-10T13:40:17.275Z,16.60
2017-10-10T13:42:46.209Z,16.50
2017-10-10T13:45:14.445Z,16.40
2017-10-10T13:47:42.946Z,16.20
2017-10-10T13:50:10.450Z,16.20
2017-10-10T13:52:37.910Z,16.20
2017-10-10T13:55:05.451Z,16.20
2017-10-10T13:57:32.918Z,16.20
2017-10-10T14:00:00.737Z,16.20
2017-10-10T14:02:28.267Z,16.20
2017-10-10T14:04:55.787Z,16.30
2017-10-10T14:07:23.314Z,16.30
2017-10-10T14:09:51.566Z,16.40
2017-10-10T14:12:19.080Z,16.40
2017-10-10T14:14:46.562Z,16.40
2017-10-10T14:17:14.079Z,16.20
2017-10-10T14:19:41.566Z,16.20
2017-10-10T14:22:09.222Z,16.30
2017-10-10T14:24:37.120Z,16.30
2017-10-10T14:27:04.585Z,16.30
2017-10-10T14:29:32.812Z,16.20
2017-10-10T14:32:00.305Z,16.20
2017-10-10T14:34:27.954Z,16.00
2017-10-10T14:36:55.480Z,16.10
2017-10-10T14:39:24.295Z,15.90
2017-10-10T14:41:51.819Z,16.00
2017-10-10T14:44:19.333Z,15.90
2017-10-10T14:46:46.900Z,16.00
2017-10-10T14:49:14.436Z,15.90
2017-10-10T14:51:41.915Z,15.90
2017-10-10T14:54:09.402Z,15.90
2017-10-10T14:56:36.920Z,15.80
2017-10-10T14:59:04.576Z,15.80
2017-10-10T15:01:32.211Z,15.80
2017-10-10T15:04:00.745Z,15.80
2017-10-10T15:06:29.047Z,15.80
2017-10-10T15:08:56.518Z,15.80
2017-10-10T15:11:24.167Z,15.80
2017-10-10T15:13:51.734Z,15.70
2017-10-10T15:16:19.247Z,15.70
2017-10-10T15:18:47.569Z,15.70
2017-10-10T15:21:15.086Z,15.70
2017-10-10T15:23:43.575Z,15.70
2017-10-10T15:26:12.216Z,15.70
2017-10-10T15:28:39.748Z,15.70
2017-10-10T15:31:07.339Z,15.70
2017-10-10T15:33:34.821Z,15.70
2017-10-10T15:36:05.205Z,15.80
2017-10-10T15:38:32.718Z,15.70
2017-10-10T15:41:01.152Z,15.90
2017-10-10T15:43:29.323Z,15.90
2017-10-10T15:45:56.975Z,15.90
2017-10-10T15:48:24.508Z,15.90
2017-10-10T15:50:52.760Z,15.90
2017-10-10T15:53:20.408Z,15.90
2017-10-10T15:55:47.926Z,15.90
2017-10-10T15:58:15.417Z,15.90
2017-10-10T16:00:43.010Z,15.80
2017-10-10T16:03:11.379Z,15.80
2017-10-10T16:05:40.017Z,15.70
2017-10-10T16:08:07.479Z,15.70
2017-10-10T16:10:35.009Z,15.70
2017-10-10T16:13:03.487Z,15.70
2017-10-10T16:15:31.627Z,15.60
2017-10-10T16:18:00.089Z,15.60
2017-10-10T16:20:27.595Z,15.60
2017-10-10T16:22:55.265Z,15.60
2017-10-10T16:25:22.875Z,15.60
2017-10-10T16:27:50.440Z,15.60
2017-10-10T16:30:18.087Z,15.50
2017-10-10T16:32:45.626Z,15.60
2017-10-10T16:35:13.088Z,15.50
2017-10-10T16:37:40.837Z,15.50
2017-10-10T16:40:08.369Z,15.50
2017-10-10T16:42:36.703Z,15.40
2017-10-10T16:45:04.562Z,15.40
2017-10-10T16:47:32.052Z,15.40
2017-10-10T16:50:00.456Z,15.40
2017-10-10T16:52:27.927Z,15.40
2017-10-10T16:54:55.456Z,15.40
2017-10-10T16:57:23.741Z,15.40
2017-10-10T16:59:51.699Z,15.40
2017-10-10T17:02:20.586Z,15.40
2017-10-10T17:04:48.821Z,15.40
2017-10-10T17:07:16.455Z,15.40
2017-10-10T17:09:44.857Z,15.30
2017-10-10T17:12:12.478Z,15.30
2017-10-10T17:14:53.616Z,15.30
2017-10-10T17:17:21.463Z,15.20
2017-10-10T17:19:48.975Z,15.20
2017-10-10T17:22:17.289Z,15.20
2017-10-10T17:24:44.766Z,15.20
2017-10-10T17:27:12.343Z,15.20
2017-10-10T17:29:39.965Z,15.20
2017-10-10T17:32:08.267Z,15.20
2017-10-10T17:34:35.817Z,15.20
2017-10-10T17:37:03.327Z,15.20
2017-10-10T17:39:31.586Z,15.20
2017-10-10T17:41:59.900Z,15.10
2017-10-10T17:44:27.371Z,15.10
2017-10-10T17:46:54.885Z,15.10
2017-10-10T17:49:23.188Z,15.10
2017-10-10T17:51:50.845Z,15.10
2017-10-10T17:54:18.518Z,15.10
2017-10-10T17:56:46.230Z,15.10
2017-10-10T17:59:14.527Z,15.10
2017-10-10T18:01:42.045Z,15.10
2017-10-10T18:04:10.821Z,15.10
2017-10-10T18:06:38.284Z,15.10
2017-10-10T18:09:06.767Z,15.10
2017-10-10T18:11:34.265Z,15.10
2017-10-10T18:14:02.734Z,15.00
2017-10-10T18:16:31.619Z,15.00
2017-10-10T18:19:00.111Z,15.00
2017-10-10T18:21:28.378Z,15.00
2017-10-10T18:23:55.918Z,15.00
2017-10-10T18:26:23.431Z,15.00
2017-10-10T18:28:50.953Z,15.00
2017-10-10T18:31:19.224Z,15.00
2017-10-10T18:33:46.710Z,15.00
2017-10-10T18:36:14.971Z,15.00
2017-10-10T18:38:43.300Z,15.00
2017-10-10T18:41:11.590Z,14.90
2017-10-10T18:43:39.091Z,15.00
2017-10-10T18:46:07.391Z,14.90
2017-10-10T18:48:34.870Z,14.90
2017-10-10T18:51:02.975Z,14.90
2017-10-10T18:53:30.497Z,14.90
2017-10-10T18:55:58.069Z,14.90
2017-10-10T18:58:25.705Z,14.90
2017-10-10T19:00:53.283Z,14.90
2017-10-10T19:03:21.944Z,14.90
2017-10-10T19:05:49.426Z,14.90
2017-10-10T19:08:17.569Z,14.90
2017-10-10T19:10:45.133Z,14.90
2017-10-10T19:13:12.648Z,14.90
2017-10-10T19:15:40.148Z,14.90
2017-10-10T19:18:07.681Z,14.90
2017-10-10T19:20:36.026Z,14.90
2017-10-10T19:23:03.629Z,14.90
2017-10-10T19:25:31.210Z,14.90
2017-10-10T19:27:59.746Z,14.90
2017-10-10T19:30:28.011Z,14.80
2017-10-10T19:32:55.486Z,14.80
2017-10-10T19:35:23.765Z,14.90
2017-10-10T19:37:51.832Z,14.90
2017-10-10T19:40:20.750Z,14.90
2017-10-10T19:42:48.733Z,14.90
2017-10-10T19:45:16.262Z,14.90
2017-10-10T19:47:44.639Z,14.80
2017-10-10T19:50:12.955Z,14.90
2017-10-10T19:52:40.458Z,14.90
2017-10-10T19:55:07.968Z,14.90
2017-10-10T19:57:35.490Z,14.80
2017-10-10T20:00:04.160Z,14.90
2017-10-10T20:02:32.455Z,14.80
2017-10-10T20:05:00.780Z,14.80
2017-10-10T20:07:28.270Z,14.80
2017-10-10T20:09:55.748Z,14.80
2017-10-10T20:12:23.997Z,14.80
2017-10-10T20:14:51.567Z,14.80
2017-10-10T20:17:19.850Z,14.70
2017-10-10T20:19:48.226Z,14.80
2017-10-10T20:22:16.506Z,14.80
2017-10-10T20:24:44.840Z,14.80
2017-10-10T20:27:12.331Z,14.80
2017-10-10T20:29:40.582Z,14.80
2017-10-10T20:32:08.070Z,14.80
2017-10-10T20:34:36.388Z,14.90
2017-10-10T20:37:04.522Z,14.90
2017-10-10T20:39:32.790Z,14.80
2017-10-10T20:42:02.506Z,14.80
2017-10-10T20:44:30.827Z,14.80
2017-10-10T20:46:58.582Z,14.80
2017-10-10T20:49:26.204Z,14.80
2017-10-10T20:51:55.124Z,14.70
2017-10-10T20:54:23.576Z,14.70
2017-10-10T20:56:51.883Z,14.70
2017-10-10T20:59:19.362Z,14.70
2017-10-10T21:01:46.871Z,14.70
2017-10-10T21:04:15.204Z,14.70
2017-10-10T21:06:42.719Z,14.70
2017-10-10T21:09:11.013Z,14.70
2017-10-10T21:11:38.515Z,14.70
2017-10-10T21:14:06.035Z,14.70
2017-10-10T21:16:33.530Z,14.70
2017-10-10T21:19:01.264Z,14.70
2017-10-10T21:21:28.764Z,14.70
2017-10-10T21:23:56.300Z,14.70
2017-10-10T21:26:23.804Z,14.70
2017-10-10T21:28:51.329Z,14.70
2017-10-10T21:31:19.255Z,14.60
2017-10-10T21:33:46.989Z,14.60
2017-10-10T21:36:16.011Z,14.50
2017-10-10T21:38:43.477Z,14.60
2017-10-10T21:41:11.029Z,14.60
2017-10-10T21:43:38.494Z,14.60
2017-10-10T21:46:05.980Z,14.60
2017-10-10T21:48:34.701Z,14.60
2017-10-10T21:51:02.981Z,14.50
2017-10-10T21:53:31.317Z,14.30
2017-10-10T21:55:58.902Z,14.30
2017-10-10T21:58:27.168Z,14.20
2017-10-10T22:00:54.670Z,14.20
2017-10-10T22:03:22.249Z,14.20
2017-10-10T22:05:49.746Z,14.10
2017-10-10T22:08:17.247Z,14.00
2017-10-10T22:10:44.876Z,14.00
2017-10-10T22:13:13.117Z,14.00
2017-10-10T22:15:40.575Z,14.00
2017-10-10T22:18:08.161Z,13.90
2017-10-10T22:20:35.631Z,13.90
2017-10-10T22:23:03.869Z,13.80
2017-10-10T22:25:31.654Z,13.70
2017-10-10T22:27:59.148Z,13.70
2017-10-10T22:30:26.615Z,13.60
2017-10-10T22:32:54.148Z,13.60
2017-10-10T22:35:22.414Z,13.50
2017-10-10T22:37:50.724Z,13.60
2017-10-10T22:40:18.571Z,13.60
2017-10-10T22:42:46.818Z,13.70
2017-10-10T22:45:15.045Z,13.80
2017-10-10T22:47:42.661Z,13.70
2017-10-10T22:50:10.908Z,13.60
2017-10-10T22:52:38.552Z,13.60
2017-10-10T22:55:06.609Z,13.50
2017-10-10T22:57:34.089Z,13.60
2017-10-10T23:00:02.571Z,13.70
2017-10-10T23:02:30.126Z,13.70
2017-10-10T23:04:57.852Z,13.80
2017-10-10T23:07:26.148Z,13.70
2017-10-10T23:09:53.706Z,13.70
2017-10-10T23:12:21.385Z,13.70
2017-10-10T23:14:48.949Z,13.50
2017-10-10T23:17:16.819Z,13.50
2017-10-10T23:19:44.325Z,13.40
2017-10-10T23:22:12.558Z,13.30
2017-10-10T23:24:40.049Z,13.30
2017-10-10T23:27:08.325Z,13.30
2017-10-10T23:29:36.592Z,13.30
2017-10-10T23:32:04.842Z,13.30
2017-10-10T23:34:33.842Z,13.20
2017-10-10T23:37:01.512Z,13.20
2017-10-10T23:39:29.317Z,13.20
2017-10-10T23:41:57.166Z,13.20
2017-10-10T23:44:25.754Z,13.10
2017-10-10T23:46:53.988Z,13.10
2017-10-10T23:49:21.473Z,13.20
2017-10-10T23:51:49.766Z,13.40
2017-10-10T23:54:18.075Z,13.40
2017-10-10T23:56:45.651Z,13.40
2017-10-10T23:59:13.269Z,13.50
